sensor_id;sensor_type;location;lat;lon;timestamp;temperature;humidity
14527;DHT22;7350;51.208;4.238;2022-10-17T00:00:49;15.80;99.90
14527;DHT22;7350;51.208;4.238;2022-10-17T00:03:16;15.70;99.90
14527;DHT22;7350;51.208;4.238;2022-10-17T00:05:44;15.80;99.90
14527;DHT22;7350;51.208;4.238;2022-10-17T00:08:14;15.80;99.90
14527;DHT22;7350;51.208;4.238;2022-10-17T00:10:42;15.70;99.90
14527;DHT22;7350;51.208;4.238;2022-10-17T00:13:09;15.70;99.90
14527;DHT22;7350;51.208;4.238;2022-10-17T00:15:36;15.60;99.90
14527;DHT22;7350;51.208;4.238;2022-10-17T00:18:03;15.60;99.90
14527;DHT22;7350;51.208;4.238;2022-10-17T00:20:30;15.60;99.90
14527;DHT22;7350;51.208;4.238;2022-10-17T00:23:00;15.60;99.90
14527;DHT22;7350;51.208;4.238;2022-10-17T00:25:28;15.70;99.90
14527;DHT22;7350;51.208;4.238;2022-10-17T00:27:55;15.60;99.90
14527;DHT22;7350;51.208;4.238;2022-10-17T00:30:22;15.70;99.90
14527;DHT22;7350;51.208;4.238;2022-10-17T00:32:49;15.60;99.90
14527;DHT22;7350;51.208;4.238;2022-10-17T00:35:16;15.50;99.90
14527;DHT22;7350;51.208;4.238;2022-10-17T00:37:42;15.50;99.90
14527;DHT22;7350;51.208;4.238;2022-10-17T00:40:10;15.50;99.90
14527;DHT22;7350;51.208;4.238;2022-10-17T00:42:38;15.50;99.90
14527;DHT22;7350;51.208;4.238;2022-10-17T00:45:17;15.40;99.90
14527;DHT22;7350;51.208;4.238;2022-10-17T00:47:47;15.50;99.90
14527;DHT22;7350;51.208;4.238;2022-10-17T00:50:14;15.40;99.90
14527;DHT22;7350;51.208;4.238;2022-10-17T00:52:42;15.40;99.90
14527;DHT22;7350;51.208;4.238;2022-10-17T00:55:13;15.40;99.90
14527;DHT22;7350;51.208;4.238;2022-10-17T00:57:43;15.40;99.90
14527;DHT22;7350;51.208;4.238;2022-10-17T01:00:11;15.40;99.90
14527;DHT22;7350;51.208;4.238;2022-10-17T01:02:39;15.40;99.90
14527;DHT22;7350;51.208;4.238;2022-10-17T01:05:07;15.40;99.90
14527;DHT22;7350;51.208;4.238;2022-10-17T01:07:35;15.40;99.90
14527;DHT22;7350;51.208;4.238;2022-10-17T01:10:05;15.40;99.90
14527;DHT22;7350;51.208;4.238;2022-10-17T01:12:47;15.40;99.90
14527;DHT22;7350;51.208;4.238;2022-10-17T01:15:23;15.50;99.90
14527;DHT22;7350;51.208;4.238;2022-10-17T01:18:02;15.50;99.90
14527;DHT22;7350;51.208;4.238;2022-10-17T01:26:58;15.40;99.90
14527;DHT22;7350;51.208;4.238;2022-10-17T01:32:25;15.40;99.90
14527;DHT22;7350;51.208;4.238;2022-10-17T01:34:59;15.40;99.90
14527;DHT22;7350;51.208;4.238;2022-10-17T01:37:31;15.40;99.90
14527;DHT22;7350;51.208;4.238;2022-10-17T01:40:02;15.40;99.90
14527;DHT22;7350;51.208;4.238;2022-10-17T01:42:35;15.40;99.90
14527;DHT22;7350;51.208;4.238;2022-10-17T01:45:08;15.30;99.90
14527;DHT22;7350;51.208;4.238;2022-10-17T01:47:41;15.30;99.90
14527;DHT22;7350;51.208;4.238;2022-10-17T01:50:13;15.40;99.90
14527;DHT22;7350;51.208;4.238;2022-10-17T01:52:45;15.30;99.90
14527;DHT22;7350;51.208;4.238;2022-10-17T01:55:18;15.30;99.90
14527;DHT22;7350;51.208;4.238;2022-10-17T01:57:50;15.20;99.90
14527;DHT22;7350;51.208;4.238;2022-10-17T02:00:22;15.30;99.90
14527;DHT22;7350;51.208;4.238;2022-10-17T02:02:52;15.30;99.90
14527;DHT22;7350;51.208;4.238;2022-10-17T02:05:25;15.30;99.90
14527;DHT22;7350;51.208;4.238;2022-10-17T02:07:54;15.40;99.90
14527;DHT22;7350;51.208;4.238;2022-10-17T02:10:28;15.30;99.90
14527;DHT22;7350;51.208;4.238;2022-10-17T02:13:01;15.30;99.90
14527;DHT22;7350;51.208;4.238;2022-10-17T02:15:58;15.40;99.90
14527;DHT22;7350;51.208;4.238;2022-10-17T02:19:06;15.40;99.90
14527;DHT22;7350;51.208;4.238;2022-10-17T02:21:42;15.50;99.90
14527;DHT22;7350;51.208;4.238;2022-10-17T02:24:17;15.50;99.90
14527;DHT22;7350;51.208;4.238;2022-10-17T02:26:50;15.50;99.90
14527;DHT22;7350;51.208;4.238;2022-10-17T02:29:21;15.50;99.90
14527;DHT22;7350;51.208;4.238;2022-10-17T02:31:53;15.50;99.90
14527;DHT22;7350;51.208;4.238;2022-10-17T02:34:25;15.50;99.90
14527;DHT22;7350;51.208;4.238;2022-10-17T02:36:58;15.50;99.90
14527;DHT22;7350;51.208;4.238;2022-10-17T02:39:27;15.50;99.90
14527;DHT22;7350;51.208;4.238;2022-10-17T02:41:56;15.60;99.90
14527;DHT22;7350;51.208;4.238;2022-10-17T02:44:25;15.60;99.90
14527;DHT22;7350;51.208;4.238;2022-10-17T02:47:00;15.60;99.90
14527;DHT22;7350;51.208;4.238;2022-10-17T02:49:34;15.60;99.90
14527;DHT22;7350;51.208;4.238;2022-10-17T02:52:07;15.60;99.90
14527;DHT22;7350;51.208;4.238;2022-10-17T02:54:39;15.60;99.90
14527;DHT22;7350;51.208;4.238;2022-10-17T02:57:15;15.60;99.90
14527;DHT22;7350;51.208;4.238;2022-10-17T02:59:43;15.60;99.90
14527;DHT22;7350;51.208;4.238;2022-10-17T03:02:11;15.50;99.90
14527;DHT22;7350;51.208;4.238;2022-10-17T03:04:42;15.50;99.90
14527;DHT22;7350;51.208;4.238;2022-10-17T03:07:09;15.60;99.90
14527;DHT22;7350;51.208;4.238;2022-10-17T03:09:36;15.70;99.90
14527;DHT22;7350;51.208;4.238;2022-10-17T03:12:03;15.70;99.90
14527;DHT22;7350;51.208;4.238;2022-10-17T03:14:30;15.70;99.90
14527;DHT22;7350;51.208;4.238;2022-10-17T03:16:57;15.80;99.90
14527;DHT22;7350;51.208;4.238;2022-10-17T03:19:24;15.80;99.90
14527;DHT22;7350;51.208;4.238;2022-10-17T03:21:52;15.90;99.90
14527;DHT22;7350;51.208;4.238;2022-10-17T03:24:19;15.90;99.90
14527;DHT22;7350;51.208;4.238;2022-10-17T03:26:46;16.00;99.90
14527;DHT22;7350;51.208;4.238;2022-10-17T03:29:13;16.10;99.90
14527;DHT22;7350;51.208;4.238;2022-10-17T03:31:40;16.20;99.90
14527;DHT22;7350;51.208;4.238;2022-10-17T03:34:07;16.40;99.90
14527;DHT22;7350;51.208;4.238;2022-10-17T03:36:34;16.40;99.90
14527;DHT22;7350;51.208;4.238;2022-10-17T03:39:02;16.40;99.90
14527;DHT22;7350;51.208;4.238;2022-10-17T03:41:29;16.50;99.90
14527;DHT22;7350;51.208;4.238;2022-10-17T03:43:56;16.60;99.90
14527;DHT22;7350;51.208;4.238;2022-10-17T03:46:23;16.60;99.90
14527;DHT22;7350;51.208;4.238;2022-10-17T03:48:50;16.70;99.90
14527;DHT22;7350;51.208;4.238;2022-10-17T03:51:17;16.80;99.90
14527;DHT22;7350;51.208;4.238;2022-10-17T03:53:44;16.90;99.90
14527;DHT22;7350;51.208;4.238;2022-10-17T03:56:15;17.10;99.90
14527;DHT22;7350;51.208;4.238;2022-10-17T03:58:42;17.10;99.90
14527;DHT22;7350;51.208;4.238;2022-10-17T04:01:11;17.10;99.90
14527;DHT22;7350;51.208;4.238;2022-10-17T04:03:39;17.10;99.90
14527;DHT22;7350;51.208;4.238;2022-10-17T04:06:06;17.00;99.90
14527;DHT22;7350;51.208;4.238;2022-10-17T04:08:34;17.00;99.90
14527;DHT22;7350;51.208;4.238;2022-10-17T04:11:01;17.10;99.90
14527;DHT22;7350;51.208;4.238;2022-10-17T04:13:31;17.10;99.90
14527;DHT22;7350;51.208;4.238;2022-10-17T04:16:01;17.20;99.90
14527;DHT22;7350;51.208;4.238;2022-10-17T04:18:28;17.30;99.90
14527;DHT22;7350;51.208;4.238;2022-10-17T04:20:55;17.40;99.90
14527;DHT22;7350;51.208;4.238;2022-10-17T04:23:22;17.30;99.90
14527;DHT22;7350;51.208;4.238;2022-10-17T04:25:54;17.50;99.90
14527;DHT22;7350;51.208;4.238;2022-10-17T04:28:22;17.40;99.90
14527;DHT22;7350;51.208;4.238;2022-10-17T04:30:56;17.40;99.90
14527;DHT22;7350;51.208;4.238;2022-10-17T04:33:23;17.40;99.90
14527;DHT22;7350;51.208;4.238;2022-10-17T04:35:55;17.50;99.90
14527;DHT22;7350;51.208;4.238;2022-10-17T04:38:22;17.60;99.90
14527;DHT22;7350;51.208;4.238;2022-10-17T04:40:49;17.50;99.90
14527;DHT22;7350;51.208;4.238;2022-10-17T04:43:16;17.60;99.90
14527;DHT22;7350;51.208;4.238;2022-10-17T04:45:43;17.60;99.90
14527;DHT22;7350;51.208;4.238;2022-10-17T04:48:11;17.60;99.90
14527;DHT22;7350;51.208;4.238;2022-10-17T04:50:38;17.70;99.90
14527;DHT22;7350;51.208;4.238;2022-10-17T04:53:05;17.70;99.90
14527;DHT22;7350;51.208;4.238;2022-10-17T04:55:36;17.70;99.90
14527;DHT22;7350;51.208;4.238;2022-10-17T04:58:03;17.60;99.90
14527;DHT22;7350;51.208;4.238;2022-10-17T05:00:30;17.60;99.90
14527;DHT22;7350;51.208;4.238;2022-10-17T05:02:57;17.70;99.90
14527;DHT22;7350;51.208;4.238;2022-10-17T05:05:26;17.70;99.90
14527;DHT22;7350;51.208;4.238;2022-10-17T05:07:53;17.60;99.90
14527;DHT22;7350;51.208;4.238;2022-10-17T05:10:20;17.70;99.90
14527;DHT22;7350;51.208;4.238;2022-10-17T05:12:46;17.70;99.90
14527;DHT22;7350;51.208;4.238;2022-10-17T05:15:13;17.80;99.90
14527;DHT22;7350;51.208;4.238;2022-10-17T05:17:41;17.70;99.90
14527;DHT22;7350;51.208;4.238;2022-10-17T05:20:09;17.70;99.90
14527;DHT22;7350;51.208;4.238;2022-10-17T05:22:37;17.90;99.90
14527;DHT22;7350;51.208;4.238;2022-10-17T05:25:06;17.80;99.90
14527;DHT22;7350;51.208;4.238;2022-10-17T05:27:33;17.80;99.90
14527;DHT22;7350;51.208;4.238;2022-10-17T05:30:00;17.90;99.90
14527;DHT22;7350;51.208;4.238;2022-10-17T05:32:26;18.00;99.90
14527;DHT22;7350;51.208;4.238;2022-10-17T05:34:53;18.10;99.90
14527;DHT22;7350;51.208;4.238;2022-10-17T05:37:20;18.20;99.90
14527;DHT22;7350;51.208;4.238;2022-10-17T05:39:48;18.00;99.90
14527;DHT22;7350;51.208;4.238;2022-10-17T05:42:16;18.00;99.90
14527;DHT22;7350;51.208;4.238;2022-10-17T05:44:42;18.00;99.90
14527;DHT22;7350;51.208;4.238;2022-10-17T05:47:09;18.10;99.90
14527;DHT22;7350;51.208;4.238;2022-10-17T05:49:36;18.20;99.90
14527;DHT22;7350;51.208;4.238;2022-10-17T05:52:03;18.10;99.90
14527;DHT22;7350;51.208;4.238;2022-10-17T05:54:30;18.10;99.90
14527;DHT22;7350;51.208;4.238;2022-10-17T05:56:59;17.90;99.90
14527;DHT22;7350;51.208;4.238;2022-10-17T05:59:26;18.30;99.90
14527;DHT22;7350;51.208;4.238;2022-10-17T06:01:53;18.30;99.90
14527;DHT22;7350;51.208;4.238;2022-10-17T06:04:20;18.30;99.90
14527;DHT22;7350;51.208;4.238;2022-10-17T06:06:47;18.30;99.90
14527;DHT22;7350;51.208;4.238;2022-10-17T06:09:14;18.40;99.90
14527;DHT22;7350;51.208;4.238;2022-10-17T06:11:41;18.20;99.90
14527;DHT22;7350;51.208;4.238;2022-10-17T06:14:10;18.30;99.90
14527;DHT22;7350;51.208;4.238;2022-10-17T06:16:37;18.30;99.90
14527;DHT22;7350;51.208;4.238;2022-10-17T06:19:04;18.20;99.90
14527;DHT22;7350;51.208;4.238;2022-10-17T06:21:30;18.10;99.90
14527;DHT22;7350;51.208;4.238;2022-10-17T06:24:01;17.90;99.90
14527;DHT22;7350;51.208;4.238;2022-10-17T06:26:28;18.10;99.90
14527;DHT22;7350;51.208;4.238;2022-10-17T06:28:54;18.20;99.90
14527;DHT22;7350;51.208;4.238;2022-10-17T06:31:23;18.30;99.90
14527;DHT22;7350;51.208;4.238;2022-10-17T06:33:50;18.30;99.90
14527;DHT22;7350;51.208;4.238;2022-10-17T06:36:17;18.20;99.90
14527;DHT22;7350;51.208;4.238;2022-10-17T06:38:44;18.00;99.90
14527;DHT22;7350;51.208;4.238;2022-10-17T06:41:12;18.00;99.90
14527;DHT22;7350;51.208;4.238;2022-10-17T06:43:41;18.10;99.90
14527;DHT22;7350;51.208;4.238;2022-10-17T06:46:11;18.00;99.90
14527;DHT22;7350;51.208;4.238;2022-10-17T06:48:39;18.20;99.90
14527;DHT22;7350;51.208;4.238;2022-10-17T06:51:06;18.50;99.90
14527;DHT22;7350;51.208;4.238;2022-10-17T06:53:36;18.60;99.90
14527;DHT22;7350;51.208;4.238;2022-10-17T06:56:05;18.60;99.90
14527;DHT22;7350;51.208;4.238;2022-10-17T06:58:34;18.50;99.90
14527;DHT22;7350;51.208;4.238;2022-10-17T07:01:03;18.30;99.90
14527;DHT22;7350;51.208;4.238;2022-10-17T07:03:31;18.20;99.90
14527;DHT22;7350;51.208;4.238;2022-10-17T07:05:59;18.10;99.90
14527;DHT22;7350;51.208;4.238;2022-10-17T07:08:26;18.00;99.90
14527;DHT22;7350;51.208;4.238;2022-10-17T07:10:54;18.00;99.90
14527;DHT22;7350;51.208;4.238;2022-10-17T07:13:22;18.00;99.90
14527;DHT22;7350;51.208;4.238;2022-10-17T07:15:50;18.10;99.90
14527;DHT22;7350;51.208;4.238;2022-10-17T07:18:16;18.00;99.90
14527;DHT22;7350;51.208;4.238;2022-10-17T07:20:51;18.00;99.90
14527;DHT22;7350;51.208;4.238;2022-10-17T07:23:20;17.90;99.90
14527;DHT22;7350;51.208;4.238;2022-10-17T07:25:47;17.90;99.90
14527;DHT22;7350;51.208;4.238;2022-10-17T07:28:14;17.90;99.90
14527;DHT22;7350;51.208;4.238;2022-10-17T07:30:41;18.10;99.90
14527;DHT22;7350;51.208;4.238;2022-10-17T07:33:09;18.10;99.90
14527;DHT22;7350;51.208;4.238;2022-10-17T07:35:37;18.10;99.90
14527;DHT22;7350;51.208;4.238;2022-10-17T07:38:05;17.90;99.90
14527;DHT22;7350;51.208;4.238;2022-10-17T07:40:33;17.90;99.90
14527;DHT22;7350;51.208;4.238;2022-10-17T07:43:00;17.80;99.90
14527;DHT22;7350;51.208;4.238;2022-10-17T07:45:27;17.80;99.90
14527;DHT22;7350;51.208;4.238;2022-10-17T07:47:55;17.80;99.90
14527;DHT22;7350;51.208;4.238;2022-10-17T07:50:23;17.70;99.90
14527;DHT22;7350;51.208;4.238;2022-10-17T07:52:49;17.80;99.90
14527;DHT22;7350;51.208;4.238;2022-10-17T07:55:16;17.80;99.90
14527;DHT22;7350;51.208;4.238;2022-10-17T07:57:45;17.80;99.90
14527;DHT22;7350;51.208;4.238;2022-10-17T08:00:12;17.80;99.90
14527;DHT22;7350;51.208;4.238;2022-10-17T08:02:39;17.90;99.90
14527;DHT22;7350;51.208;4.238;2022-10-17T08:05:06;17.90;99.90
14527;DHT22;7350;51.208;4.238;2022-10-17T08:07:33;17.90;99.90
14527;DHT22;7350;51.208;4.238;2022-10-17T08:10:00;18.00;99.90
14527;DHT22;7350;51.208;4.238;2022-10-17T08:12:27;17.80;99.90
14527;DHT22;7350;51.208;4.238;2022-10-17T08:14:58;17.80;99.90
14527;DHT22;7350;51.208;4.238;2022-10-17T08:17:25;17.70;99.90
14527;DHT22;7350;51.208;4.238;2022-10-17T08:19:52;17.70;99.90
14527;DHT22;7350;51.208;4.238;2022-10-17T08:22:19;17.70;99.90
14527;DHT22;7350;51.208;4.238;2022-10-17T08:24:46;17.70;99.90
14527;DHT22;7350;51.208;4.238;2022-10-17T08:27:13;17.80;99.90
14527;DHT22;7350;51.208;4.238;2022-10-17T08:29:46;17.70;99.90
14527;DHT22;7350;51.208;4.238;2022-10-17T08:32:18;17.70;99.90
14527;DHT22;7350;51.208;4.238;2022-10-17T08:34:45;17.70;99.90
14527;DHT22;7350;51.208;4.238;2022-10-17T08:37:13;17.70;99.90
14527;DHT22;7350;51.208;4.238;2022-10-17T08:39:40;17.80;99.90
14527;DHT22;7350;51.208;4.238;2022-10-17T08:42:26;17.90;99.90
14527;DHT22;7350;51.208;4.238;2022-10-17T08:45:00;17.90;99.90
14527;DHT22;7350;51.208;4.238;2022-10-17T08:47:35;17.80;99.90
14527;DHT22;7350;51.208;4.238;2022-10-17T08:50:05;17.80;99.90
14527;DHT22;7350;51.208;4.238;2022-10-17T08:52:37;17.90;99.90
14527;DHT22;7350;51.208;4.238;2022-10-17T08:55:14;17.90;99.90
14527;DHT22;7350;51.208;4.238;2022-10-17T08:57:41;18.00;99.90
14527;DHT22;7350;51.208;4.238;2022-10-17T09:00:13;17.90;99.90
14527;DHT22;7350;51.208;4.238;2022-10-17T09:02:51;17.90;99.90
14527;DHT22;7350;51.208;4.238;2022-10-17T09:05:33;18.10;99.90
14527;DHT22;7350;51.208;4.238;2022-10-17T09:08:07;18.20;99.90
14527;DHT22;7350;51.208;4.238;2022-10-17T09:10:44;18.30;99.90
14527;DHT22;7350;51.208;4.238;2022-10-17T09:13:21;18.30;99.90
14527;DHT22;7350;51.208;4.238;2022-10-17T09:16:03;18.20;99.90
14527;DHT22;7350;51.208;4.238;2022-10-17T09:18:37;18.20;99.90
14527;DHT22;7350;51.208;4.238;2022-10-17T09:21:14;18.10;99.90
14527;DHT22;7350;51.208;4.238;2022-10-17T09:23:45;18.10;99.90
14527;DHT22;7350;51.208;4.238;2022-10-17T09:26:14;18.10;99.90
14527;DHT22;7350;51.208;4.238;2022-10-17T09:28:42;18.20;99.90
14527;DHT22;7350;51.208;4.238;2022-10-17T09:31:13;18.40;99.90
14527;DHT22;7350;51.208;4.238;2022-10-17T09:33:44;18.40;99.90
14527;DHT22;7350;51.208;4.238;2022-10-17T09:36:15;18.70;99.90
14527;DHT22;7350;51.208;4.238;2022-10-17T09:38:44;18.70;99.90
14527;DHT22;7350;51.208;4.238;2022-10-17T09:41:17;18.70;99.90
14527;DHT22;7350;51.208;4.238;2022-10-17T09:43:44;18.70;99.90
14527;DHT22;7350;51.208;4.238;2022-10-17T09:46:16;18.50;99.90
14527;DHT22;7350;51.208;4.238;2022-10-17T09:48:50;18.60;99.90
14527;DHT22;7350;51.208;4.238;2022-10-17T09:51:19;18.50;99.90
14527;DHT22;7350;51.208;4.238;2022-10-17T09:53:50;18.40;99.90
14527;DHT22;7350;51.208;4.238;2022-10-17T09:56:18;18.50;99.90
14527;DHT22;7350;51.208;4.238;2022-10-17T09:58:47;18.60;99.90
14527;DHT22;7350;51.208;4.238;2022-10-17T10:01:18;18.40;99.90
14527;DHT22;7350;51.208;4.238;2022-10-17T10:03:45;18.40;99.90
14527;DHT22;7350;51.208;4.238;2022-10-17T10:06:15;18.30;99.90
14527;DHT22;7350;51.208;4.238;2022-10-17T10:08:50;18.20;99.90
14527;DHT22;7350;51.208;4.238;2022-10-17T10:11:20;18.30;99.90
14527;DHT22;7350;51.208;4.238;2022-10-17T10:13:49;18.10;99.90
14527;DHT22;7350;51.208;4.238;2022-10-17T10:16:21;18.10;99.90
14527;DHT22;7350;51.208;4.238;2022-10-17T10:18:51;18.20;99.90
14527;DHT22;7350;51.208;4.238;2022-10-17T10:21:20;18.40;99.90
14527;DHT22;7350;51.208;4.238;2022-10-17T10:24:05;18.30;99.90
14527;DHT22;7350;51.208;4.238;2022-10-17T10:26:39;18.40;99.90
14527;DHT22;7350;51.208;4.238;2022-10-17T10:29:19;18.50;99.90
14527;DHT22;7350;51.208;4.238;2022-10-17T10:31:47;18.50;99.90
14527;DHT22;7350;51.208;4.238;2022-10-17T10:34:18;18.60;99.90
14527;DHT22;7350;51.208;4.238;2022-10-17T10:36:58;18.70;99.90
14527;DHT22;7350;51.208;4.238;2022-10-17T10:39:36;18.90;99.90
14527;DHT22;7350;51.208;4.238;2022-10-17T10:42:07;18.80;99.90
14527;DHT22;7350;51.208;4.238;2022-10-17T10:44:42;18.80;99.90
14527;DHT22;7350;51.208;4.238;2022-10-17T10:47:21;19.00;99.90
14527;DHT22;7350;51.208;4.238;2022-10-17T10:49:51;19.00;99.90
14527;DHT22;7350;51.208;4.238;2022-10-17T10:52:28;19.00;99.90
14527;DHT22;7350;51.208;4.238;2022-10-17T10:55:02;19.10;99.90
14527;DHT22;7350;51.208;4.238;2022-10-17T10:57:32;19.20;99.90
14527;DHT22;7350;51.208;4.238;2022-10-17T11:00:06;19.50;99.90
14527;DHT22;7350;51.208;4.238;2022-10-17T11:02:41;19.40;99.90
14527;DHT22;7350;51.208;4.238;2022-10-17T11:05:15;19.50;99.90
14527;DHT22;7350;51.208;4.238;2022-10-17T11:07:50;19.70;99.90
14527;DHT22;7350;51.208;4.238;2022-10-17T11:10:24;19.90;99.90
14527;DHT22;7350;51.208;4.238;2022-10-17T11:13:00;19.80;99.90
14527;DHT22;7350;51.208;4.238;2022-10-17T11:15:34;19.90;99.90
14527;DHT22;7350;51.208;4.238;2022-10-17T11:18:04;20.00;99.90
14527;DHT22;7350;51.208;4.238;2022-10-17T11:20:37;20.00;99.90
14527;DHT22;7350;51.208;4.238;2022-10-17T11:23:16;19.90;99.90
14527;DHT22;7350;51.208;4.238;2022-10-17T11:25:47;20.00;99.90
14527;DHT22;7350;51.208;4.238;2022-10-17T11:28:17;20.00;99.90
14527;DHT22;7350;51.208;4.238;2022-10-17T11:30:47;20.00;99.90
14527;DHT22;7350;51.208;4.238;2022-10-17T11:33:20;19.80;99.90
14527;DHT22;7350;51.208;4.238;2022-10-17T11:35:52;19.80;99.90
14527;DHT22;7350;51.208;4.238;2022-10-17T11:38:37;19.90;99.90
14527;DHT22;7350;51.208;4.238;2022-10-17T11:41:07;20.00;99.90
14527;DHT22;7350;51.208;4.238;2022-10-17T11:43:41;19.90;99.90
14527;DHT22;7350;51.208;4.238;2022-10-17T11:46:14;20.10;99.90
14527;DHT22;7350;51.208;4.238;2022-10-17T11:48:48;20.10;99.90
14527;DHT22;7350;51.208;4.238;2022-10-17T11:51:16;20.10;99.90
14527;DHT22;7350;51.208;4.238;2022-10-17T11:53:48;19.90;99.90
14527;DHT22;7350;51.208;4.238;2022-10-17T11:56:21;20.00;99.90
14527;DHT22;7350;51.208;4.238;2022-10-17T11:58:57;20.10;99.90
14527;DHT22;7350;51.208;4.238;2022-10-17T12:01:34;19.90;99.90
14527;DHT22;7350;51.208;4.238;2022-10-17T12:04:15;19.80;99.90
14527;DHT22;7350;51.208;4.238;2022-10-17T12:06:51;19.90;99.90
14527;DHT22;7350;51.208;4.238;2022-10-17T12:09:28;20.00;99.90
14527;DHT22;7350;51.208;4.238;2022-10-17T12:11:59;19.90;99.90
14527;DHT22;7350;51.208;4.238;2022-10-17T12:14:38;19.80;99.90
14527;DHT22;7350;51.208;4.238;2022-10-17T12:17:29;19.90;99.90
14527;DHT22;7350;51.208;4.238;2022-10-17T12:20:27;19.90;99.90
14527;DHT22;7350;51.208;4.238;2022-10-17T12:22:57;19.90;99.90
14527;DHT22;7350;51.208;4.238;2022-10-17T12:25:28;20.00;99.90
14527;DHT22;7350;51.208;4.238;2022-10-17T12:28:16;20.30;99.90
14527;DHT22;7350;51.208;4.238;2022-10-17T12:30:56;20.30;99.90
14527;DHT22;7350;51.208;4.238;2022-10-17T12:33:31;20.10;99.90
14527;DHT22;7350;51.208;4.238;2022-10-17T12:42:45;20.10;99.90
14527;DHT22;7350;51.208;4.238;2022-10-17T12:45:48;20.20;99.90
14527;DHT22;7350;51.208;4.238;2022-10-17T12:48:59;20.10;99.90
14527;DHT22;7350;51.208;4.238;2022-10-17T12:51:27;20.20;99.90
14527;DHT22;7350;51.208;4.238;2022-10-17T12:53:58;20.10;99.90
14527;DHT22;7350;51.208;4.238;2022-10-17T12:56:35;20.30;99.90
14527;DHT22;7350;51.208;4.238;2022-10-17T12:59:08;20.40;99.90
14527;DHT22;7350;51.208;4.238;2022-10-17T13:01:36;20.40;99.90
14527;DHT22;7350;51.208;4.238;2022-10-17T13:04:05;20.30;99.90
14527;DHT22;7350;51.208;4.238;2022-10-17T13:06:38;20.40;99.90
14527;DHT22;7350;51.208;4.238;2022-10-17T13:09:17;20.50;99.90
14527;DHT22;7350;51.208;4.238;2022-10-17T13:11:48;20.50;99.90
14527;DHT22;7350;51.208;4.238;2022-10-17T13:14:19;20.50;99.90
14527;DHT22;7350;51.208;4.238;2022-10-17T13:16:51;20.50;99.90
14527;DHT22;7350;51.208;4.238;2022-10-17T13:19:20;20.50;99.90
14527;DHT22;7350;51.208;4.238;2022-10-17T13:21:52;20.70;99.90
14527;DHT22;7350;51.208;4.238;2022-10-17T13:24:22;20.70;99.90
14527;DHT22;7350;51.208;4.238;2022-10-17T13:26:49;20.70;99.90
14527;DHT22;7350;51.208;4.238;2022-10-17T13:29:18;20.70;99.90
14527;DHT22;7350;51.208;4.238;2022-10-17T13:31:51;20.70;99.90
14527;DHT22;7350;51.208;4.238;2022-10-17T13:34:23;20.80;99.90
14527;DHT22;7350;51.208;4.238;2022-10-17T13:36:52;20.60;99.90
14527;DHT22;7350;51.208;4.238;2022-10-17T13:39:22;20.50;99.90
14527;DHT22;7350;51.208;4.238;2022-10-17T13:41:50;20.40;99.90
14527;DHT22;7350;51.208;4.238;2022-10-17T13:44:21;20.50;99.90
14527;DHT22;7350;51.208;4.238;2022-10-17T13:46:49;20.60;99.90
14527;DHT22;7350;51.208;4.238;2022-10-17T13:49:19;20.70;99.90
14527;DHT22;7350;51.208;4.238;2022-10-17T13:51:49;20.80;99.90
14527;DHT22;7350;51.208;4.238;2022-10-17T13:54:18;21.00;99.90
14527;DHT22;7350;51.208;4.238;2022-10-17T13:56:54;20.80;99.90
14527;DHT22;7350;51.208;4.238;2022-10-17T13:59:25;20.90;99.90
14527;DHT22;7350;51.208;4.238;2022-10-17T14:01:53;20.80;99.90
14527;DHT22;7350;51.208;4.238;2022-10-17T14:04:21;20.80;99.90
14527;DHT22;7350;51.208;4.238;2022-10-17T14:06:48;21.00;99.90
14527;DHT22;7350;51.208;4.238;2022-10-17T14:09:20;20.90;99.90
14527;DHT22;7350;51.208;4.238;2022-10-17T14:11:58;21.10;99.90
14527;DHT22;7350;51.208;4.238;2022-10-17T14:14:28;21.20;99.90
14527;DHT22;7350;51.208;4.238;2022-10-17T14:16:55;21.10;99.90
14527;DHT22;7350;51.208;4.238;2022-10-17T14:19:25;21.10;99.90
14527;DHT22;7350;51.208;4.238;2022-10-17T14:21:53;20.90;99.90
14527;DHT22;7350;51.208;4.238;2022-10-17T14:24:29;21.00;99.90
14527;DHT22;7350;51.208;4.238;2022-10-17T14:26:58;21.20;99.90
14527;DHT22;7350;51.208;4.238;2022-10-17T14:29:28;21.10;99.90
14527;DHT22;7350;51.208;4.238;2022-10-17T14:32:04;20.90;99.90
14527;DHT22;7350;51.208;4.238;2022-10-17T14:34:35;21.00;99.90
14527;DHT22;7350;51.208;4.238;2022-10-17T14:37:08;21.10;99.90
14527;DHT22;7350;51.208;4.238;2022-10-17T14:39:35;21.10;99.90
14527;DHT22;7350;51.208;4.238;2022-10-17T14:42:02;20.90;99.90
14527;DHT22;7350;51.208;4.238;2022-10-17T14:44:33;21.00;99.90
14527;DHT22;7350;51.208;4.238;2022-10-17T14:47:03;21.10;99.90
14527;DHT22;7350;51.208;4.238;2022-10-17T14:49:33;21.00;99.90
14527;DHT22;7350;51.208;4.238;2022-10-17T14:55:24;21.10;99.90
14527;DHT22;7350;51.208;4.238;2022-10-17T14:57:51;20.90;99.90
14527;DHT22;7350;51.208;4.238;2022-10-17T15:00:21;20.90;99.90
14527;DHT22;7350;51.208;4.238;2022-10-17T15:02:50;20.90;99.90
14527;DHT22;7350;51.208;4.238;2022-10-17T15:05:17;20.80;99.90
14527;DHT22;7350;51.208;4.238;2022-10-17T15:07:45;20.70;99.90
14527;DHT22;7350;51.208;4.238;2022-10-17T15:10:26;20.70;99.90
14527;DHT22;7350;51.208;4.238;2022-10-17T15:12:54;20.80;99.90
14527;DHT22;7350;51.208;4.238;2022-10-17T15:15:22;20.60;99.90
14527;DHT22;7350;51.208;4.238;2022-10-17T15:17:49;20.60;99.90
14527;DHT22;7350;51.208;4.238;2022-10-17T15:20:17;20.40;99.90
14527;DHT22;7350;51.208;4.238;2022-10-17T15:22:44;20.50;99.90
14527;DHT22;7350;51.208;4.238;2022-10-17T15:25:12;20.60;99.90
14527;DHT22;7350;51.208;4.238;2022-10-17T15:27:39;20.40;99.90
14527;DHT22;7350;51.208;4.238;2022-10-17T15:30:16;20.40;99.90
14527;DHT22;7350;51.208;4.238;2022-10-17T15:32:46;20.40;99.90
14527;DHT22;7350;51.208;4.238;2022-10-17T15:35:14;20.40;99.90
14527;DHT22;7350;51.208;4.238;2022-10-17T15:37:42;20.30;99.90
14527;DHT22;7350;51.208;4.238;2022-10-17T15:40:14;20.30;99.90
14527;DHT22;7350;51.208;4.238;2022-10-17T15:42:41;20.30;99.90
14527;DHT22;7350;51.208;4.238;2022-10-17T15:45:09;20.30;99.90
14527;DHT22;7350;51.208;4.238;2022-10-17T15:47:36;20.10;99.90
14527;DHT22;7350;51.208;4.238;2022-10-17T15:50:06;20.00;99.90
14527;DHT22;7350;51.208;4.238;2022-10-17T15:52:33;20.10;99.90
14527;DHT22;7350;51.208;4.238;2022-10-17T15:55:00;19.90;99.90
14527;DHT22;7350;51.208;4.238;2022-10-17T15:57:29;19.90;99.90
14527;DHT22;7350;51.208;4.238;2022-10-17T15:59:59;20.00;99.90
14527;DHT22;7350;51.208;4.238;2022-10-17T16:02:26;19.90;99.90
14527;DHT22;7350;51.208;4.238;2022-10-17T16:04:53;19.90;99.90
14527;DHT22;7350;51.208;4.238;2022-10-17T16:07:21;19.90;99.90
14527;DHT22;7350;51.208;4.238;2022-10-17T16:09:48;19.90;99.90
14527;DHT22;7350;51.208;4.238;2022-10-17T16:12:17;20.00;99.90
14527;DHT22;7350;51.208;4.238;2022-10-17T16:14:44;19.90;99.90
14527;DHT22;7350;51.208;4.238;2022-10-17T16:17:13;19.60;99.90
14527;DHT22;7350;51.208;4.238;2022-10-17T16:19:40;19.40;99.90
14527;DHT22;7350;51.208;4.238;2022-10-17T16:22:15;19.50;99.90
14527;DHT22;7350;51.208;4.238;2022-10-17T16:24:45;19.50;99.90